createdAt,value
2023-03-22T00:01:17.896Z,9.12
2023-03-22T00:03:45.843Z,9.08
2023-03-22T00:06:13.599Z,9.02
2023-03-22T00:08:41.364Z,8.96
2023-03-22T00:11:08.871Z,8.90
2023-03-22T00:13:37.607Z,8.82
2023-03-22T00:16:06.100Z,8.77
2023-03-22T00:18:33.675Z,8.74
2023-03-22T00:21:02.042Z,8.72
2023-03-22T00:23:29.884Z,8.67
2023-03-22T00:25:57.228Z,8.65
2023-03-22T00:28:26.296Z,8.63
2023-03-22T00:30:57.983Z,8.59
2023-03-22T00:33:29.269Z,8.57
2023-03-22T00:36:10.848Z,8.55
2023-03-22T00:38:44.006Z,8.50
2023-03-22T00:41:26.863Z,8.46
2023-03-22T00:43:54.275Z,8.39
2023-03-22T00:46:21.890Z,8.35
2023-03-22T00:48:49.418Z,8.33
2023-03-22T00:51:17.524Z,8.22
2023-03-22T00:53:54.075Z,8.16
2023-03-22T00:56:23.206Z,8.09
2023-03-22T00:58:51.383Z,8.11
2023-03-22T01:01:18.474Z,8.13
2023-03-22T01:03:52.301Z,8.06
2023-03-22T01:06:19.322Z,8.08
2023-03-22T01:08:49.262Z,8.08
2023-03-22T01:11:16.778Z,8.03
2023-03-22T01:13:44.133Z,8.00
2023-03-22T01:16:12.551Z,8.00
2023-03-22T01:18:40.849Z,8.00
2023-03-22T01:21:08.170Z,7.97
2023-03-22T01:23:36.782Z,7.96
2023-03-22T01:26:04.865Z,7.91
2023-03-22T01:28:32.484Z,7.89
2023-03-22T01:31:03.250Z,7.83
2023-03-22T01:33:31.237Z,7.81
2023-03-22T01:35:59.402Z,7.76
2023-03-22T01:38:26.750Z,7.72
2023-03-22T01:40:53.828Z,7.70
2023-03-22T01:43:21.645Z,7.67
2023-03-22T01:45:50.560Z,7.61
2023-03-22T01:48:46.333Z,7.59
2023-03-22T01:51:24.066Z,7.54
2023-03-22T01:54:02.836Z,7.51
2023-03-22T01:56:33.723Z,7.51
2023-03-22T01:59:02.919Z,7.50
2023-03-22T02:01:30.997Z,7.46
2023-03-22T02:04:20.150Z,7.45
2023-03-22T02:06:48.427Z,7.35
2023-03-22T02:09:22.199Z,7.30
2023-03-22T02:12:12.390Z,7.24
2023-03-22T02:14:56.603Z,7.18
2023-03-22T02:18:06.512Z,7.13
2023-03-22T02:20:59.327Z,7.07
2023-03-22T02:23:42.411Z,7.04
2023-03-22T02:26:18.874Z,6.97
2023-03-22T02:28:51.849Z,6.93
2023-03-22T02:31:39.348Z,6.84
2023-03-22T02:34:18.212Z,6.85
2023-03-22T02:36:51.497Z,6.81
2023-03-22T02:39:37.947Z,6.76
2023-03-22T02:42:42.649Z,6.72
2023-03-22T02:45:12.636Z,6.65
2023-03-22T02:47:39.910Z,6.57
2023-03-22T02:50:07.079Z,6.52
2023-03-22T02:52:50.339Z,6.46
2023-03-22T02:55:17.318Z,6.44
2023-03-22T02:57:56.290Z,6.40
2023-03-22T03:00:26.058Z,6.37
2023-03-22T03:03:00.177Z,6.37
2023-03-22T03:05:31.106Z,6.34
2023-03-22T03:08:02.595Z,6.31
2023-03-22T03:10:30.274Z,6.29
2023-03-22T03:12:58.865Z,6.25
2023-03-22T03:15:26.080Z,6.21
2023-03-22T03:17:56.404Z,6.20
2023-03-22T03:20:55.807Z,6.18
2023-03-22T03:23:49.319Z,6.15
2023-03-22T03:26:35.761Z,6.12
2023-03-22T03:29:09.963Z,6.08
2023-03-22T03:31:43.855Z,6.03
2023-03-22T03:34:25.750Z,6.00
2023-03-22T03:37:15.268Z,5.94
2023-03-22T03:39:53.262Z,5.87
2023-03-22T03:42:23.950Z,5.84
2023-03-22T03:44:51.372Z,5.84
2023-03-22T03:47:19.557Z,5.81
2023-03-22T03:49:47.199Z,5.75
2023-03-22T03:52:14.335Z,5.73
2023-03-22T03:54:41.772Z,5.74
2023-03-22T03:57:12.405Z,5.68
2023-03-22T03:59:39.812Z,5.70
2023-03-22T04:02:06.809Z,5.70
2023-03-22T04:04:36.104Z,5.69
2023-03-22T04:07:05.766Z,5.70
2023-03-22T04:09:36.004Z,5.67
2023-03-22T04:12:03.743Z,5.62
2023-03-22T04:14:34.038Z,5.65
2023-03-22T04:17:01.236Z,5.67
2023-03-22T04:19:28.800Z,5.70
2023-03-22T04:21:59.072Z,5.66
2023-03-22T04:24:27.112Z,5.64
2023-03-22T04:26:54.617Z,5.61
2023-03-22T04:29:23.070Z,5.60
2023-03-22T04:31:53.420Z,5.59
2023-03-22T04:34:23.788Z,5.57
2023-03-22T04:36:51.192Z,5.66
2023-03-22T04:39:20.942Z,5.69
2023-03-22T04:41:48.078Z,5.77
2023-03-22T04:44:17.584Z,5.77
2023-03-22T04:46:45.185Z,5.88
2023-03-22T04:49:13.409Z,5.81
2023-03-22T04:51:41.354Z,5.84
2023-03-22T04:54:08.879Z,5.92
2023-03-22T04:56:36.202Z,5.97
2023-03-22T04:59:03.599Z,6.04
2023-03-22T05:01:30.782Z,6.10
2023-03-22T05:03:58.448Z,6.12
2023-03-22T05:06:30.307Z,6.13
2023-03-22T05:08:57.798Z,6.09
2023-03-22T05:11:30.234Z,6.22
2023-03-22T05:13:58.006Z,6.20
2023-03-22T05:16:25.843Z,6.28
2023-03-22T05:18:57.125Z,6.30
2023-03-22T05:21:28.826Z,6.29
2023-03-22T05:23:57.969Z,6.41
2023-03-22T05:26:26.539Z,6.45
2023-03-22T05:28:55.341Z,6.49
2023-03-22T05:31:28.900Z,6.54
2023-03-22T05:33:56.682Z,6.56
2023-03-22T05:36:35.493Z,6.64
2023-03-22T05:39:06.097Z,6.70
2023-03-22T05:41:36.321Z,6.71
2023-03-22T05:44:05.170Z,6.86
2023-03-22T05:46:32.498Z,6.96
2023-03-22T05:49:14.633Z,7.11
2023-03-22T05:56:12.676Z,7.49
2023-03-22T05:58:51.828Z,7.60
2023-03-22T06:04:34.638Z,7.88
2023-03-22T06:07:02.196Z,7.91
2023-03-22T06:09:29.958Z,8.02
2023-03-22T06:11:58.701Z,8.15
2023-03-22T06:14:27.335Z,8.24
2023-03-22T06:16:56.668Z,8.35
2023-03-22T06:19:28.914Z,8.45
2023-03-22T06:21:57.291Z,8.63
2023-03-22T06:24:24.418Z,8.69
2023-03-22T06:26:53.361Z,8.89
2023-03-22T06:29:20.891Z,8.96
2023-03-22T06:34:30.557Z,9.25
2023-03-22T06:37:00.363Z,9.34
2023-03-22T06:39:27.784Z,9.45
2023-03-22T06:41:56.577Z,9.56
2023-03-22T06:44:23.739Z,9.66
2023-03-22T06:49:57.178Z,9.93
2023-03-22T06:52:27.006Z,10.10
2023-03-22T06:54:58.429Z,10.23
2023-03-22T06:57:28.410Z,10.38
2023-03-22T06:59:59.922Z,10.48
2023-03-22T07:02:31.929Z,10.44
2023-03-22T07:04:59.231Z,10.46
2023-03-22T07:07:27.052Z,10.47
2023-03-22T07:09:54.473Z,10.52
2023-03-22T07:12:25.144Z,10.58
2023-03-22T07:14:52.434Z,10.75
2023-03-22T07:17:27.523Z,10.90
2023-03-22T07:19:55.339Z,11.12
2023-03-22T07:22:26.133Z,11.30
2023-03-22T07:24:57.579Z,11.44
2023-03-22T07:27:31.135Z,11.53
2023-03-22T07:29:58.480Z,11.62
2023-03-22T07:32:27.202Z,11.75
2023-03-22T07:34:54.395Z,11.82
2023-03-22T07:37:31.081Z,11.98
2023-03-22T07:39:58.249Z,12.11
2023-03-22T07:42:29.421Z,12.20
2023-03-22T07:44:57.162Z,12.29
2023-03-22T07:53:06.816Z,12.48
2023-03-22T07:55:36.190Z,12.53
2023-03-22T07:58:12.113Z,12.51
2023-03-22T08:00:44.572Z,12.73
2023-03-22T08:03:13.413Z,12.91
2023-03-22T08:05:44.402Z,13.01
2023-03-22T08:08:13.713Z,13.20
2023-03-22T08:10:48.558Z,13.29
2023-03-22T08:13:15.708Z,13.40
2023-03-22T08:15:43.859Z,13.58
2023-03-22T08:18:11.450Z,13.86
2023-03-22T08:20:39.407Z,13.91
2023-03-22T08:23:08.232Z,14.14
2023-03-22T08:25:37.796Z,14.17
2023-03-22T08:28:05.337Z,14.13
2023-03-22T08:30:33.453Z,14.35
2023-03-22T08:33:01.305Z,14.91
2023-03-22T08:35:28.991Z,15.69
2023-03-22T08:37:57.060Z,16.33
2023-03-22T08:40:24.997Z,16.86
2023-03-22T08:42:52.471Z,17.61
2023-03-22T08:45:20.031Z,18.34
2023-03-22T08:47:49.791Z,19.04
2023-03-22T08:50:28.514Z,19.72
2023-03-22T08:52:56.667Z,20.21
2023-03-22T08:55:24.936Z,20.11
2023-03-22T08:57:52.197Z,20.14
2023-03-22T09:00:20.900Z,20.37
2023-03-22T09:02:50.960Z,20.65
2023-03-22T09:05:33.552Z,20.86
2023-03-22T09:08:06.604Z,20.97
2023-03-22T09:10:36.422Z,20.78
2023-03-22T09:13:08.782Z,20.87
2023-03-22T09:15:36.149Z,21.42
2023-03-22T09:18:04.152Z,22.14
2023-03-22T09:20:31.280Z,22.67
2023-03-22T09:22:59.098Z,22.62
2023-03-22T09:25:28.221Z,22.77
2023-03-22T09:27:56.452Z,22.82
2023-03-22T09:30:29.903Z,22.78
2023-03-22T09:33:09.569Z,22.48
2023-03-22T09:35:43.146Z,22.61
2023-03-22T09:38:12.480Z,22.78
2023-03-22T09:40:53.574Z,23.23
2023-03-22T09:43:21.658Z,23.40
2023-03-22T09:45:51.883Z,23.54
2023-03-22T09:48:29.937Z,23.85
2023-03-22T09:51:01.269Z,24.28
2023-03-22T09:53:33.418Z,24.57
2023-03-22T09:56:24.092Z,25.01
2023-03-22T09:59:21.672Z,25.35
2023-03-22T10:02:01.364Z,25.68
2023-03-22T10:04:47.232Z,25.53
2023-03-22T10:07:40.890Z,25.58
2023-03-22T10:10:21.916Z,26.23
2023-03-22T10:12:58.732Z,27.05
2023-03-22T10:15:36.398Z,27.64
2023-03-22T10:18:08.470Z,28.20
2023-03-22T10:20:53.477Z,27.76
2023-03-22T10:23:29.857Z,27.31
2023-03-22T10:26:01.449Z,26.87
2023-03-22T10:28:38.036Z,26.08
2023-03-22T10:31:11.066Z,25.64
2023-03-22T10:33:54.264Z,25.68
2023-03-22T10:36:27.373Z,25.43
2023-03-22T10:39:19.598Z,25.25
2023-03-22T10:41:48.270Z,25.00
2023-03-22T10:47:58.385Z,24.42
2023-03-22T10:50:32.887Z,24.64
2023-03-22T10:53:32.236Z,24.20
2023-03-22T10:55:59.832Z,23.90
2023-03-22T10:58:35.075Z,23.98
2023-03-22T11:01:11.739Z,24.27
2023-03-22T11:03:41.269Z,24.29
2023-03-22T11:06:22.962Z,24.79
2023-03-22T11:08:53.516Z,24.57
2023-03-22T11:11:36.063Z,24.73
2023-03-22T11:14:30.038Z,24.98
2023-03-22T11:17:10.362Z,24.86
2023-03-22T11:19:41.811Z,24.10
2023-03-22T11:22:32.707Z,23.54
2023-03-22T11:25:01.460Z,23.17
2023-03-22T11:27:34.412Z,22.80
2023-03-22T11:30:22.385Z,22.50
2023-03-22T11:33:00.347Z,22.50
2023-03-22T11:35:34.287Z,22.66
2023-03-22T11:38:02.474Z,22.33
2023-03-22T11:40:31.768Z,22.06
2023-03-22T11:43:19.909Z,21.98
2023-03-22T11:45:52.022Z,21.98
2023-03-22T11:48:23.909Z,22.19
2023-03-22T11:50:59.584Z,23.51
2023-03-22T11:53:34.451Z,24.55
2023-03-22T11:56:27.534Z,24.59
2023-03-22T11:59:07.651Z,24.95
2023-03-22T12:01:49.238Z,25.42
2023-03-22T12:04:23.269Z,24.71
2023-03-22T12:06:55.527Z,24.90
2023-03-22T12:09:32.946Z,24.87
2023-03-22T12:12:02.535Z,24.22
2023-03-22T12:14:47.237Z,23.46
2023-03-22T12:18:01.400Z,22.67
2023-03-22T12:20:47.938Z,22.40
2023-03-22T12:23:18.189Z,22.48
2023-03-22T12:26:15.920Z,23.01
2023-03-22T12:29:05.495Z,24.04
2023-03-22T12:31:43.209Z,24.84
2023-03-22T12:34:18.373Z,24.11
2023-03-22T12:36:52.736Z,24.02
2023-03-22T12:39:26.373Z,23.39
2023-03-22T12:42:00.567Z,23.32
2023-03-22T12:45:02.173Z,23.51
2023-03-22T12:47:41.982Z,24.39
2023-03-22T12:50:19.666Z,23.98
2023-03-22T12:52:56.080Z,23.11
2023-03-22T12:58:27.016Z,21.92
2023-03-22T13:01:10.862Z,22.08
2023-03-22T13:03:52.271Z,23.03
2023-03-22T13:06:30.270Z,24.32
2023-03-22T13:09:30.460Z,24.98
2023-03-22T13:12:19.077Z,24.18
2023-03-22T13:14:52.259Z,23.13
2023-03-22T13:17:22.388Z,22.32
2023-03-22T13:20:20.048Z,21.32
2023-03-22T13:22:48.435Z,20.95
2023-03-22T13:25:23.828Z,20.31
2023-03-22T13:27:58.223Z,19.49
2023-03-22T13:30:52.898Z,18.87
2023-03-22T13:33:30.779Z,18.54
2023-03-22T13:36:07.045Z,18.32
2023-03-22T13:38:42.105Z,18.15
2023-03-22T13:41:37.812Z,18.00
2023-03-22T13:44:36.512Z,17.88
2023-03-22T13:47:07.957Z,17.75
2023-03-22T13:49:55.605Z,17.62
2023-03-22T13:52:27.551Z,17.55
2023-03-22T13:54:57.910Z,17.56
2023-03-22T13:57:47.555Z,17.50
2023-03-22T14:00:30.610Z,17.46
2023-03-22T14:03:33.757Z,17.39
2023-03-22T14:06:25.978Z,17.34
2023-03-22T14:09:13.901Z,17.31
2023-03-22T14:11:51.995Z,17.31
2023-03-22T14:14:24.607Z,17.27
2023-03-22T14:17:21.877Z,17.22
2023-03-22T14:19:51.834Z,17.09
